Time;durP1;ratioP1;P1;durP2;ratioP2;P2;SDS_P1;SDS_P2;PMS_P1;PMS_P2;Temp;Humidity;BMP_temperature;BMP_pressure;BME280_temperature;BME280_humidity;BME280_pressure;Samples;Min_cycle;Max_cycle;Signal;HPM_P1;HPM_P2
2022/09/13 00:00:52;;;;;;;0.75;0.30;;;;;;;15.80;100.00;100410.47;5040241;28;20169;-54
2022/09/13 00:03:19;;;;;;;1.35;0.40;;;;;;;15.79;100.00;100408.88;5029481;28;20116;-53
2022/09/13 00:05:44;;;;;;;1.02;0.50;;;;;;;15.75;100.00;100411.19;5038783;28;20264;-56
2022/09/13 00:08:10;;;;;;;3.17;0.70;;;;;;;15.71;100.00;100412.66;5035446;28;20058;-56
2022/09/13 00:10:37;;;;;;;0.47;0.47;;;;;;;15.69;100.00;100420.94;5034979;28;20037;-56
2022/09/13 00:13:08;;;;;;;0.88;0.55;;;;;;;15.69;100.00;100420.09;5036836;28;20050;-57
2022/09/13 00:15:34;;;;;;;0.93;0.30;;;;;;;15.67;100.00;100414.16;5038867;28;20037;-52
2022/09/13 00:18:00;;;;;;;1.02;0.52;;;;;;;15.66;100.00;100425.88;5041788;28;20083;-56
2022/09/13 00:20:25;;;;;;;3.13;0.68;;;;;;;15.63;100.00;100412.97;5048154;28;20037;-57
2022/09/13 00:22:51;;;;;;;1.65;0.68;;;;;;;15.62;100.00;100424.69;5037302;28;20029;-54
2022/09/13 00:25:16;;;;;;;2.90;0.43;;;;;;;15.59;100.00;100419.78;5038795;28;20128;-53
2022/09/13 00:27:43;;;;;;;1.58;0.20;;;;;;;15.53;100.00;100412.69;5044210;28;20028;-54
2022/09/13 00:30:09;;;;;;;4.22;0.40;;;;;;;15.47;100.00;100417.06;5036189;28;20389;-53
2022/09/13 00:32:35;;;;;;;3.13;1.05;;;;;;;15.46;100.00;100421.59;5034284;28;20103;-54
2022/09/13 00:35:02;;;;;;;1.73;0.90;;;;;;;15.44;100.00;100417.53;5039904;28;20033;-55
2022/09/13 00:37:31;;;;;;;1.55;0.30;;;;;;;15.46;100.00;100426.94;5035556;28;20029;-55
2022/09/13 00:39:59;;;;;;;0.60;0.55;;;;;;;15.48;100.00;100427.50;5037531;28;20037;-56
2022/09/13 00:42:31;;;;;;;1.30;0.32;;;;;;;15.51;100.00;100422.78;5036666;28;20461;-56
2022/09/13 00:45:11;;;;;;;0.73;0.28;;;;;;;15.51;100.00;100430.78;5042917;28;20091;-57
2022/09/13 00:48:02;;;;;;;0.95;0.50;;;;;;;15.48;100.00;100418.69;5043939;28;20029;-57
2022/09/13 00:50:32;;;;;;;0.98;0.43;;;;;;;15.44;100.00;100423.69;5049455;28;20036;-54
2022/09/13 00:53:02;;;;;;;0.60;0.35;;;;;;;15.42;100.00;100423.09;5048033;28;20452;-53
2022/09/13 00:55:57;;;;;;;3.63;0.47;;;;;;;15.40;100.00;100425.16;5046990;28;20079;-52
2022/09/13 00:58:40;;;;;;;2.67;0.75;;;;;;;15.38;100.00;100424.56;5038753;28;20526;-57
2022/09/13 01:01:12;;;;;;;7.40;0.95;;;;;;;15.38;100.00;100421.88;5045463;28;20043;-55
2022/09/13 01:03:42;;;;;;;2.83;0.30;;;;;;;15.38;100.00;100421.06;5040364;28;20033;-56
2022/09/13 01:06:19;;;;;;;4.20;0.52;;;;;;;15.36;100.00;100423.16;5044506;28;20048;-56
2022/09/13 01:08:49;;;;;;;1.55;0.40;;;;;;;15.31;100.00;100428.34;5043504;28;20037;-53
2022/09/13 01:11:28;;;;;;;1.38;0.40;;;;;;;15.31;100.00;100429.19;5041425;28;20036;-57
2022/09/13 01:13:56;;;;;;;1.08;0.38;;;;;;;15.30;100.00;100430.22;5042397;28;20192;-56
2022/09/13 01:16:22;;;;;;;0.75;0.75;;;;;;;15.26;100.00;100423.69;5044050;28;20029;-51
2022/09/13 01:18:49;;;;;;;2.65;0.43;;;;;;;15.23;100.00;100416.09;5034196;28;20036;-53
2022/09/13 01:21:48;;;;;;;5.65;1.77;;;;;;;15.25;100.00;100404.16;5043414;28;20049;-53
2022/09/13 01:24:47;;;;;;;1.30;0.28;;;;;;;15.27;100.00;100401.28;5039632;28;20029;-55
2022/09/13 01:27:42;;;;;;;2.35;0.68;;;;;;;15.45;100.00;100398.59;5028082;28;20299;-51
2022/09/13 01:30:15;;;;;;;2.00;0.85;;;;;;;15.68;100.00;100403.22;5039275;28;20026;-57
2022/09/13 01:33:00;;;;;;;9.63;2.15;;;;;;;15.78;100.00;100408.06;5029680;28;20053;-53
2022/09/13 01:35:42;;;;;;;2.35;1.77;;;;;;;16.01;100.00;100404.66;5039601;28;20482;-53
2022/09/13 01:38:40;;;;;;;6.13;1.13;;;;;;;16.09;100.00;100408.84;5035416;28;20037;-54
2022/09/13 01:41:28;;;;;;;1.52;1.25;;;;;;;16.14;100.00;100407.13;5037358;28;20038;-51
2022/09/13 01:44:28;;;;;;;2.10;1.83;;;;;;;16.25;100.00;100408.19;5037677;28;20041;-52
2022/09/13 01:47:22;;;;;;;6.88;2.10;;;;;;;16.28;100.00;100406.91;5032638;28;20032;-51
2022/09/13 01:50:18;;;;;;;3.88;2.58;;;;;;;16.29;100.00;100404.00;5036242;28;20060;-54
2022/09/13 01:52:57;;;;;;;4.45;2.45;;;;;;;16.32;100.00;100413.44;5042846;28;20044;-54
2022/09/13 01:55:34;;;;;;;3.53;2.30;;;;;;;16.28;100.00;100414.94;5032714;28;20037;-56
2022/09/13 01:58:13;;;;;;;3.90;1.50;;;;;;;16.31;100.00;100411.78;5040162;28;20119;-53
2022/09/13 02:01:02;;;;;;;2.20;1.85;;;;;;;16.35;100.00;100408.41;5040563;28;20490;-54
2022/09/13 02:03:41;;;;;;;1.95;1.83;;;;;;;16.30;100.00;100391.44;5039621;28;20025;-56
2022/09/13 02:06:23;;;;;;;4.15;1.73;;;;;;;16.24;100.00;100398.53;5034036;28;20363;-53
2022/09/13 02:08:59;;;;;;;4.00;1.90;;;;;;;16.25;100.00;100397.47;5040573;28;20187;-54
2022/09/13 02:11:26;;;;;;;6.88;1.77;;;;;;;16.19;100.00;100402.94;5041485;28;20099;-55
2022/09/13 02:14:10;;;;;;;4.25;3.05;;;;;;;16.13;100.00;100399.31;5042891;28;20071;-54
2022/09/13 02:16:41;;;;;;;2.47;1.50;;;;;;;16.03;100.00;100399.06;5038208;28;20033;-53
2022/09/13 02:19:23;;;;;;;1.67;1.58;;;;;;;15.95;100.00;100391.34;5035137;28;20068;-53
2022/09/13 02:21:58;;;;;;;4.78;2.00;;;;;;;15.88;100.00;100396.81;5038590;28;20079;-51
2022/09/13 02:24:32;;;;;;;1.95;1.35;;;;;;;15.90;100.00;100395.56;5043679;28;20036;-49
2022/09/13 02:27:04;;;;;;;1.50;1.38;;;;;;;15.87;100.00;100395.97;5043203;28;20034;-50
2022/09/13 02:29:35;;;;;;;1.52;1.20;;;;;;;15.85;100.00;100387.41;5041219;28;20109;-53
2022/09/13 02:32:16;;;;;;;2.05;1.95;;;;;;;15.78;100.00;100389.34;5038729;28;20025;-54
2022/09/13 02:34:50;;;;;;;1.13;1.00;;;;;;;15.72;100.00;100392.09;5042476;28;20091;-49
2022/09/13 02:37:18;;;;;;;2.72;1.33;;;;;;;15.81;100.00;100388.06;5036979;28;20112;-55
2022/09/13 02:39:54;;;;;;;1.58;1.48;;;;;;;15.84;100.00;100392.97;5042775;28;20049;-50
2022/09/13 02:42:28;;;;;;;2.30;2.10;;;;;;;15.76;100.00;100395.97;5046647;28;20033;-51
2022/09/13 02:44:59;;;;;;;2.15;1.42;;;;;;;15.79;100.00;100401.66;5034852;28;20039;-50
2022/09/13 02:47:55;;;;;;;2.17;1.83;;;;;;;15.80;100.00;100405.97;5041429;28;20025;-55
2022/09/13 02:51:04;;;;;;;5.22;1.83;;;;;;;15.81;100.00;100407.59;5045973;28;20033;-56
2022/09/13 02:53:50;;;;;;;1.77;1.40;;;;;;;15.79;100.00;100407.00;5020472;28;20033;-53
2022/09/13 02:56:25;;;;;;;0.70;0.70;;;;;;;15.81;100.00;100404.94;5038589;28;20143;-53
2022/09/13 02:59:05;;;;;;;2.85;1.00;;;;;;;15.88;100.00;100408.31;5042558;28;20398;-55
2022/09/13 03:01:35;;;;;;;1.23;1.23;;;;;;;15.90;100.00;100400.06;5041235;28;20052;-52
2022/09/13 03:04:02;;;;;;;1.77;0.70;;;;;;;15.89;100.00;100398.44;5043063;28;20033;-51
2022/09/13 03:06:29;;;;;;;1.33;0.65;;;;;;;15.91;100.00;100407.88;5035506;28;20056;-50
2022/09/13 03:08:59;;;;;;;0.98;0.98;;;;;;;15.90;100.00;100397.38;5045459;28;20187;-52
2022/09/13 03:11:40;;;;;;;0.40;0.40;;;;;;;15.88;100.00;100397.63;5039003;28;20021;-55
2022/09/13 03:14:33;;;;;;;2.03;0.40;;;;;;;15.82;100.00;100392.38;5040530;28;20057;-57
2022/09/13 03:17:17;;;;;;;0.70;0.68;;;;;;;15.77;100.00;100390.38;5040066;28;20044;-54
2022/09/13 03:19:48;;;;;;;0.93;0.93;;;;;;;15.74;100.00;100385.47;5043081;28;20025;-54
2022/09/13 03:22:42;;;;;;;0.68;0.68;;;;;;;15.61;100.00;100385.63;5042596;28;20029;-54
2022/09/13 03:25:32;;;;;;;0.47;0.40;;;;;;;15.51;100.00;100391.50;5035507;28;20065;-51
2022/09/13 03:28:40;;;;;;;0.57;0.50;;;;;;;15.39;100.00;100386.13;5040312;28;20056;-53
2022/09/13 03:31:14;;;;;;;1.13;0.90;;;;;;;15.35;100.00;100387.59;5016639;28;20036;-50
2022/09/13 03:33:47;;;;;;;0.90;0.90;;;;;;;15.28;100.00;100392.22;5035810;28;20036;-51
2022/09/13 03:36:38;;;;;;;0.65;0.65;;;;;;;15.23;100.00;100402.75;5041002;28;20021;-53
2022/09/13 03:39:35;;;;;;;0.50;0.38;;;;;;;15.17;100.00;100409.00;5033645;28;20052;-52
2022/09/13 03:42:15;;;;;;;1.08;0.95;;;;;;;15.11;100.00;100413.38;5046889;28;20111;-51
2022/09/13 03:44:43;;;;;;;0.80;0.80;;;;;;;15.05;100.00;100420.44;5047176;28;20036;-53
2022/09/13 03:47:10;;;;;;;2.65;0.82;;;;;;;15.03;100.00;100419.00;5041399;28;20961;-54
2022/09/13 03:49:38;;;;;;;0.93;0.50;;;;;;;15.01;100.00;100421.09;5044006;28;20336;-54
2022/09/13 03:52:04;;;;;;;0.73;0.73;;;;;;;15.00;100.00;100422.13;5041211;28;20622;-55
2022/09/13 03:54:36;;;;;;;0.65;0.65;;;;;;;14.95;100.00;100419.31;5042592;28;20025;-52
2022/09/13 03:57:12;;;;;;;0.60;0.60;;;;;;;14.88;100.00;100423.88;5040015;28;20275;-51
2022/09/13 03:59:47;;;;;;;2.05;1.20;;;;;;;14.85;100.00;100429.69;5044574;28;20021;-53
2022/09/13 04:02:14;;;;;;;1.33;1.23;;;;;;;14.91;100.00;100431.47;5035565;28;20034;-56
2022/09/13 04:04:41;;;;;;;1.45;1.35;;;;;;;14.95;100.00;100435.31;5041726;28;20453;-55
2022/09/13 04:07:10;;;;;;;1.27;1.27;;;;;;;14.95;100.00;100424.66;5044909;28;20032;-54
2022/09/13 04:09:36;;;;;;;1.90;1.60;;;;;;;14.99;100.00;100436.50;5037629;28;20064;-52
2022/09/13 04:12:03;;;;;;;1.50;1.40;;;;;;;15.00;100.00;100430.16;5045964;28;20547;-53
2022/09/13 04:14:29;;;;;;;1.48;1.40;;;;;;;14.96;100.00;100442.28;5048145;28;20045;-55
2022/09/13 04:16:56;;;;;;;1.52;1.42;;;;;;;14.95;100.00;100432.66;5047031;28;20030;-57
2022/09/13 04:19:23;;;;;;;1.48;1.38;;;;;;;14.95;100.00;100432.66;5044449;28;20028;-57
2022/09/13 04:21:50;;;;;;;2.58;2.38;;;;;;;14.98;100.00;100435.69;5045382;28;20032;-54
2022/09/13 04:24:17;;;;;;;1.52;1.42;;;;;;;15.01;100.00;100437.91;5044533;28;20033;-54
2022/09/13 04:26:44;;;;;;;1.98;1.88;;;;;;;15.00;100.00;100436.28;5031577;28;20036;-57
2022/09/13 04:29:10;;;;;;;2.45;2.25;;;;;;;15.00;100.00;100446.97;5046054;28;20100;-54
2022/09/13 04:31:37;;;;;;;3.50;2.42;;;;;;;15.00;100.00;100457.66;5036702;28;20025;-51
2022/09/13 04:34:03;;;;;;;2.95;2.65;;;;;;;15.02;100.00;100452.06;5040901;28;20071;-54
2022/09/13 04:36:28;;;;;;;2.45;2.35;;;;;;;15.02;100.00;100458.25;5047767;28;20415;-56
2022/09/13 04:38:54;;;;;;;1.67;1.58;;;;;;;15.01;100.00;100464.63;5037205;28;20029;-51
2022/09/13 04:41:19;;;;;;;1.92;1.83;;;;;;;15.04;100.00;100472.19;5042943;28;20044;-54
2022/09/13 04:43:49;;;;;;;2.67;2.42;;;;;;;15.07;100.00;100467.44;5034592;28;20139;-55
2022/09/13 04:46:15;;;;;;;2.88;2.63;;;;;;;15.07;100.00;100467.44;5037076;28;20028;-54
2022/09/13 04:48:41;;;;;;;2.80;2.05;;;;;;;15.09;100.00;100468.84;5038570;28;20021;-55
2022/09/13 04:51:06;;;;;;;2.17;2.08;;;;;;;15.12;100.00;100470.25;5038793;28;20494;-54
2022/09/13 04:53:32;;;;;;;2.35;2.22;;;;;;;15.12;100.00;100465.72;5043274;28;20040;-53
2022/09/13 04:56:01;;;;;;;2.25;2.13;;;;;;;15.12;100.00;100478.28;5048194;28;20528;-54
2022/09/13 04:58:27;;;;;;;2.58;2.38;;;;;;;15.12;100.00;100473.75;5034385;28;20556;-57
2022/09/13 05:00:55;;;;;;;1.95;1.85;;;;;;;15.10;100.00;100467.00;5041598;28;20029;-55
2022/09/13 05:03:22;;;;;;;1.73;1.63;;;;;;;15.10;100.00;100467.84;5033985;28;20443;-54
2022/09/13 05:05:47;;;;;;;1.70;1.60;;;;;;;15.10;100.00;100472.34;5038571;28;20029;-55
2022/09/13 05:08:12;;;;;;;1.75;1.30;;;;;;;15.09;100.00;100474.19;5044110;28;20028;-55
2022/09/13 05:10:38;;;;;;;2.92;2.72;;;;;;;15.09;100.00;100478.72;5042065;28;20035;-57
2022/09/13 05:13:04;;;;;;;2.08;1.77;;;;;;;15.08;100.00;100477.09;5045678;28;20136;-54
2022/09/13 05:15:29;;;;;;;1.63;1.52;;;;;;;15.08;100.00;100477.09;5036720;28;20021;-57
2022/09/13 05:17:54;;;;;;;1.52;1.42;;;;;;;15.07;100.00;100475.44;5041770;28;20095;-55
2022/09/13 05:20:20;;;;;;;1.83;1.50;;;;;;;15.07;100.00;100480.78;5037134;28;20022;-57
2022/09/13 05:22:45;;;;;;;1.60;1.50;;;;;;;15.06;100.00;100474.63;5035658;28;20100;-56
2022/09/13 05:25:11;;;;;;;2.45;2.22;;;;;;;15.08;100.00;100477.09;5042029;28;20029;-53
2022/09/13 05:27:36;;;;;;;1.48;1.48;;;;;;;15.08;100.00;100471.75;5044491;28;20071;-52
2022/09/13 05:30:03;;;;;;;2.88;1.98;;;;;;;15.09;100.00;100476.06;5036084;28;20539;-52
2022/09/13 05:32:30;;;;;;;1.70;1.60;;;;;;;15.10;100.00;100473.19;5038780;28;20500;-54
2022/09/13 05:34:55;;;;;;;1.45;1.40;;;;;;;15.07;100.00;100470.09;5047192;28;20048;-52
2022/09/13 05:37:21;;;;;;;1.88;0.90;;;;;;;15.07;100.00;100465.56;5038953;28;20029;-53
2022/09/13 05:39:46;;;;;;;1.52;1.25;;;;;;;15.07;100.00;100470.91;5040145;28;20026;-56
2022/09/13 05:42:11;;;;;;;3.35;2.20;;;;;;;15.06;100.00;100474.63;5044661;28;20470;-54
2022/09/13 05:44:37;;;;;;;3.15;2.42;;;;;;;15.05;100.00;100457.81;5050919;28;20032;-55
2022/09/13 05:47:02;;;;;;;1.63;1.52;;;;;;;15.07;100.00;100457.56;5041855;28;20383;-57
2022/09/13 05:49:27;;;;;;;2.60;2.33;;;;;;;15.06;100.00;100458.63;5043769;28;20447;-51
2022/09/13 05:51:53;;;;;;;1.95;1.85;;;;;;;15.08;100.00;100461.06;5043257;28;20430;-56
2022/09/13 05:54:18;;;;;;;2.28;2.08;;;;;;;15.07;100.00;100454.91;5037421;28;20521;-55
2022/09/13 05:56:43;;;;;;;6.97;2.28;;;;;;;15.08;100.00;100456.56;5032341;28;20449;-57
2022/09/13 05:59:13;;;;;;;2.92;1.60;;;;;;;15.09;100.00;100452.84;5032618;28;20029;-54
2022/09/13 06:01:39;;;;;;;1.45;1.38;;;;;;;15.10;100.00;100453.63;5031782;28;20648;-57
2022/09/13 06:04:04;;;;;;;1.60;1.48;;;;;;;15.10;100.00;100445.63;5029808;28;20278;-56
2022/09/13 06:06:30;;;;;;;1.55;1.45;;;;;;;15.10;100.00;100434.94;5029488;28;20521;-55
2022/09/13 06:08:56;;;;;;;2.10;1.90;;;;;;;15.12;100.00;100439.03;5032728;28;20040;-56
2022/09/13 06:11:23;;;;;;;1.83;1.73;;;;;;;15.14;100.00;100444.97;5031631;28;20435;-54
2022/09/13 06:13:49;;;;;;;3.00;2.17;;;;;;;15.14;100.00;100434.28;5034190;28;20126;-54
2022/09/13 06:16:16;;;;;;;2.53;1.73;;;;;;;15.16;100.00;100442.91;5036243;28;20030;-56
2022/09/13 06:18:42;;;;;;;0.75;0.73;;;;;;;15.16;100.00;100442.09;5033767;28;20064;-55
2022/09/13 06:21:21;;;;;;;1.38;1.27;;;;;;;15.16;100.00;100444.75;5035690;28;20028;-56
2022/09/13 06:23:50;;;;;;;1.52;1.20;;;;;;;15.17;100.00;100446.38;5031357;28;20030;-53
2022/09/13 06:26:18;;;;;;;1.33;1.30;;;;;;;15.18;100.00;100456.84;5035108;28;20107;-58
2022/09/13 06:28:47;;;;;;;1.20;1.10;;;;;;;15.23;100.00;100449.00;5033824;28;20025;-54
2022/09/13 06:31:14;;;;;;;1.20;1.20;;;;;;;15.23;100.00;100442.81;5043085;28;20041;-54
2022/09/13 06:33:41;;;;;;;3.72;1.70;;;;;;;15.24;100.00;100453.28;5039452;28;20033;-56
2022/09/13 06:36:18;;;;;;;1.35;1.25;;;;;;;15.26;100.00;100461.91;5033819;28;20028;-54
2022/09/13 06:38:45;;;;;;;1.52;1.42;;;;;;;15.28;100.00;100475.00;5038062;28;20116;-57
2022/09/13 06:41:13;;;;;;;3.88;1.25;;;;;;;15.30;100.00;100472.13;5030346;28;20131;-55
2022/09/13 06:43:39;;;;;;;1.50;1.10;;;;;;;15.26;100.00;100469.09;5031844;28;20032;-53
2022/09/13 06:46:07;;;;;;;3.75;0.85;;;;;;;15.22;100.00;100457.22;5032356;28;20485;-56
2022/09/13 06:48:35;;;;;;;4.13;1.40;;;;;;;15.19;100.00;100463.00;5033117;28;20021;-57
2022/09/13 06:51:02;;;;;;;1.48;0.98;;;;;;;15.13;100.00;100461.22;5033413;28;20337;-54
2022/09/13 06:53:28;;;;;;;3.78;1.10;;;;;;;15.12;100.00;100457.72;5038812;28;20020;-54
2022/09/13 06:56:13;;;;;;;0.73;0.70;;;;;;;15.10;100.00;100464.31;5035526;28;20031;-56
2022/09/13 06:58:40;;;;;;;2.05;1.10;;;;;;;15.06;100.00;100463.97;5037812;28;20025;-48
2022/09/13 07:01:25;;;;;;;6.22;0.80;;;;;;;15.04;100.00;100452.69;5031455;28;20033;-56
2022/09/13 07:03:53;;;;;;;1.45;0.30;;;;;;;15.03;100.00;100443.84;5036323;28;20040;-58
2022/09/13 07:06:26;;;;;;;0.80;0.32;;;;;;;15.02;100.00;100436.91;5034339;28;20120;-54
2022/09/13 07:08:52;;;;;;;1.63;0.10;;;;;;;14.97;100.00;100428.72;5032912;28;20120;-56
2022/09/13 07:11:19;;;;;;;0.10;0.10;;;;;;;14.90;100.00;100427.16;5035546;28;20482;-57
2022/09/13 07:13:53;;;;;;;2.10;0.28;;;;;;;14.78;100.00;100414.53;5035510;28;20053;-57
2022/09/13 07:16:20;;;;;;;1.65;0.00;;;;;;;14.74;100.00;100431.19;5032216;28;20124;-53
2022/09/13 07:18:53;;;;;;;3.20;0.30;;;;;;;14.78;100.00;100430.53;5034780;28;20403;-56
2022/09/13 07:21:20;;;;;;;0.82;0.05;;;;;;;14.82;100.00;100425.59;5041524;28;20066;-55
2022/09/13 07:23:45;;;;;;;0.55;0.00;;;;;;;14.78;100.00;100413.72;5044381;28;20021;-51
2022/09/13 07:26:10;;;;;;;1.75;0.08;;;;;;;14.79;100.00;100405.50;5040909;28;20044;-53
2022/09/13 07:28:38;;;;;;;0.80;0.10;;;;;;;14.75;100.00;100404.28;5037039;28;20437;-51
2022/09/13 07:31:24;;;;;;;5.18;1.00;;;;;;;14.77;100.00;100423.59;5028749;28;20087;-50
2022/09/13 07:33:54;;;;;;;0.20;0.10;;;;;;;14.74;100.00;100413.34;5035021;28;20033;-53
2022/09/13 07:36:20;;;;;;;0.70;0.45;;;;;;;14.74;100.00;100417.84;5028603;28;20710;-51
2022/09/13 07:38:47;;;;;;;1.75;0.30;;;;;;;14.76;100.00;100411.25;5041341;28;20029;-50
2022/09/13 07:41:14;;;;;;;0.85;0.00;;;;;;;14.74;100.00;100418.69;5040608;28;20029;-50
2022/09/13 07:43:40;;;;;;;2.05;0.00;;;;;;;14.67;100.00;100411.78;5043246;28;20923;-53
2022/09/13 07:46:08;;;;;;;3.42;0.00;;;;;;;14.63;100.00;100405.22;5046118;28;20033;-51
2022/09/13 07:48:36;;;;;;;0.77;0.17;;;;;;;14.63;100.00;100403.38;5038104;28;20363;-53
2022/09/13 07:51:10;;;;;;;3.83;0.05;;;;;;;14.61;100.00;100397.44;5044487;28;20102;-56
2022/09/13 07:53:36;;;;;;;1.48;0.85;;;;;;;14.59;100.00;100392.34;5036738;28;20098;-56
2022/09/13 07:56:03;;;;;;;2.72;0.75;;;;;;;14.66;100.00;100389.59;5039925;28;20493;-57
2022/09/13 07:58:29;;;;;;;0.30;0.13;;;;;;;14.74;100.00;100380.47;5030127;28;20029;-57
2022/09/13 08:01:01;;;;;;;2.28;0.10;;;;;;;14.77;100.00;100385.41;5035023;28;20026;-56
2022/09/13 08:03:29;;;;;;;1.45;0.08;;;;;;;14.77;100.00;100380.88;5033096;28;20037;-56
2022/09/13 08:05:54;;;;;;;1.48;0.00;;;;;;;14.76;100.00;100381.09;5038851;28;20116;-55
2022/09/13 08:08:19;;;;;;;2.42;0.00;;;;;;;14.72;100.00;100387.91;5042211;28;20108;-53
2022/09/13 08:10:45;;;;;;;1.00;0.10;;;;;;;14.73;100.00;100398.34;5038365;28;20370;-57
2022/09/13 08:13:10;;;;;;;5.50;0.20;;;;;;;14.79;100.00;100396.66;5034303;28;20372;-56
2022/09/13 08:15:36;;;;;;;0.00;0.00;;;;;;;14.78;100.00;100401.19;5037328;28;20496;-56
2022/09/13 08:18:01;;;;;;;0.45;0.10;;;;;;;14.73;100.00;100395.69;5033856;28;20028;-53
2022/09/13 08:20:27;;;;;;;2.60;0.03;;;;;;;14.78;100.00;100400.38;5033118;28;20405;-57
2022/09/13 08:22:52;;;;;;;11.60;0.00;;;;;;;14.74;100.00;100394.66;5042709;28;20598;-51
2022/09/13 08:25:17;;;;;;;3.33;0.05;;;;;;;14.66;100.00;100400.25;5035171;28;20034;-49
2022/09/13 08:27:43;;;;;;;0.20;0.00;;;;;;;14.65;100.00;100405.84;5032669;28;20025;-52
2022/09/13 08:30:09;;;;;;;1.70;0.57;;;;;;;14.67;100.00;100395.78;5033335;28;20033;-52
2022/09/13 08:32:34;;;;;;;0.57;0.10;;;;;;;14.73;100.00;100405.56;5035622;28;20029;-55
2022/09/13 08:35:00;;;;;;;3.30;0.30;;;;;;;14.79;100.00;100415.34;5036016;28;20026;-55
2022/09/13 08:37:25;;;;;;;0.98;0.30;;;;;;;14.78;100.00;100413.72;5029825;28;20083;-53
2022/09/13 08:39:50;;;;;;;0.15;0.00;;;;;;;14.80;100.00;100406.31;5033195;28;20415;-56
2022/09/13 08:42:42;;;;;;;0.98;0.10;;;;;;;14.90;100.00;100409.28;5040003;28;20329;-54
2022/09/13 08:45:07;;;;;;;;;;;;;;;14.98;100.00;100409.00;5034024;28;20044;-52
2022/09/13 08:47:39;;;;;;;2.90;0.20;;;;;;;14.99;100.00;100413.28;5031158;28;20380;-52
2022/09/13 08:50:25;;;;;;;0.10;0.00;;;;;;;15.04;100.00;100408.09;5037789;28;20037;-51
2022/09/13 08:53:01;;;;;;;0.68;0.08;;;;;;;15.15;100.00;100421.75;5032659;28;20430;-55
2022/09/13 08:55:34;;;;;;;3.63;0.82;;;;;;;15.21;100.00;100413.66;5034579;28;20025;-58
2022/09/13 08:58:24;;;;;;;0.00;0.00;;;;;;;15.27;100.00;100409.28;5040844;28;20033;-55
2022/09/13 09:01:03;;;;;;;0.22;0.00;;;;;;;15.27;100.00;100414.63;5039585;28;20493;-57
2022/09/13 09:03:42;;;;;;;0.30;0.00;;;;;;;15.43;100.00;100414.00;5040686;28;20276;-58
2022/09/13 09:06:15;;;;;;;1.60;0.17;;;;;;;15.54;100.00;100406.28;5033188;28;20033;-56
2022/09/13 09:08:54;;;;;;;0.77;0.00;;;;;;;15.68;100.00;100403.22;5043903;28;20029;-57
2022/09/13 09:11:44;;;;;;;0.45;0.00;;;;;;;15.76;100.00;100401.31;5043414;28;20044;-59
2022/09/13 09:14:30;;;;;;;2.55;0.20;;;;;;;15.81;100.00;100402.25;5030172;28;20053;-57
2022/09/13 09:17:02;;;;;;;0.63;0.05;;;;;;;15.83;100.00;100400.16;5042386;28;20036;-58
2022/09/13 09:19:34;;;;;;;3.33;0.30;;;;;;;15.84;100.00;100391.09;5034430;28;20037;-52
2022/09/13 09:22:06;;;;;;;0.10;0.00;;;;;;;15.86;100.00;100399.72;5041483;28;20037;-52
2022/09/13 09:24:36;;;;;;;1.08;0.00;;;;;;;15.85;100.00;100395.41;5044084;28;20068;-55
2022/09/13 09:27:08;;;;;;;2.95;0.10;;;;;;;15.80;100.00;100387.25;5043553;28;20029;-54
2022/09/13 09:29:37;;;;;;;3.28;0.03;;;;;;;15.81;100.00;100393.41;5034462;28;20034;-54
2022/09/13 09:32:08;;;;;;;1.17;0.38;;;;;;;15.89;100.00;100390.41;5039809;28;20124;-53
2022/09/13 09:34:41;;;;;;;0.30;0.22;;;;;;;15.90;100.00;100389.38;5039728;28;20502;-52
2022/09/13 09:37:25;;;;;;;0.68;0.10;;;;;;;15.90;100.00;100387.53;5045703;28;20052;-53
2022/09/13 09:39:52;;;;;;;6.47;0.38;;;;;;;15.88;100.00;100388.81;5033474;28;20380;-52
2022/09/13 09:42:23;;;;;;;0.65;0.10;;;;;;;15.82;100.00;100387.81;5041928;28;20030;-59
2022/09/13 09:44:56;;;;;;;2.35;0.13;;;;;;;15.86;100.00;100391.69;5036003;28;20034;-53
2022/09/13 09:47:23;;;;;;;1.00;0.20;;;;;;;15.80;100.00;100392.63;5041389;28;20543;-55
2022/09/13 09:52:40;;;;;;;2.80;1.25;;;;;;;15.90;100.00;100397.38;5038598;28;20099;-58
2022/09/13 09:55:25;;;;;;;1.48;0.25;;;;;;;15.86;100.00;100394.38;5038854;28;20405;-58
2022/09/13 09:57:57;;;;;;;0.68;0.32;;;;;;;15.89;100.00;100393.91;5041188;28;20483;-55
2022/09/13 10:00:30;;;;;;;5.55;0.70;;;;;;;15.84;100.00;100391.09;5033518;28;20076;-54
2022/09/13 10:03:00;;;;;;;2.63;0.60;;;;;;;15.87;100.00;100395.97;5043064;28;20151;-56
2022/09/13 10:05:26;;;;;;;2.38;0.30;;;;;;;15.97;100.00;100397.31;5047406;28;20367;-53
2022/09/13 10:08:01;;;;;;;1.02;0.47;;;;;;;15.98;100.00;100402.44;5034024;28;20036;-54
2022/09/13 10:10:41;;;;;;;1.98;0.73;;;;;;;15.87;100.00;100393.31;5031967;28;20561;-53
2022/09/13 10:13:15;;;;;;;0.85;0.17;;;;;;;15.95;100.00;100402.88;5043886;28;20433;-51
2022/09/13 10:16:02;;;;;;;2.17;0.20;;;;;;;16.04;100.00;100401.50;5037192;28;20463;-53
2022/09/13 10:18:36;;;;;;;1.77;0.20;;;;;;;16.01;100.00;100404.66;5032316;28;20057;-54
2022/09/13 10:21:19;;;;;;;0.50;0.43;;;;;;;16.04;100.00;100403.38;5034126;28;20100;-54
2022/09/13 10:23:49;;;;;;;2.08;0.20;;;;;;;16.14;100.00;100393.75;5046011;28;20473;-53
2022/09/13 10:26:14;;;;;;;1.02;0.32;;;;;;;16.11;100.00;100404.09;5047286;28;20494;-52
2022/09/13 10:28:45;;;;;;;3.90;0.60;;;;;;;16.03;100.00;100404.41;5037020;28;20087;-51
2022/09/13 10:31:13;;;;;;;3.50;0.88;;;;;;;16.03;100.00;100407.91;5036082;28;20051;-53
2022/09/13 10:33:41;;;;;;;2.60;0.50;;;;;;;16.12;100.00;100405.72;5044792;28;20498;-52
2022/09/13 10:36:15;;;;;;;3.25;0.30;;;;;;;16.23;100.00;100415.59;5046697;28;20083;-53
2022/09/13 10:38:46;;;;;;;2.40;0.32;;;;;;;16.21;100.00;100420.41;5044073;28;20029;-52
2022/09/13 10:41:22;;;;;;;2.88;0.70;;;;;;;16.28;100.00;100418.41;5034736;28;20040;-54
2022/09/13 10:43:55;;;;;;;1.73;0.17;;;;;;;16.40;100.00;100414.97;5038785;28;20041;-56
2022/09/13 10:46:22;;;;;;;1.85;0.10;;;;;;;16.39;100.00;100410.63;5043281;28;20037;-50
2022/09/13 10:48:57;;;;;;;1.50;0.30;;;;;;;16.39;100.00;100421.34;5032657;28;20061;-56
2022/09/13 10:51:25;;;;;;;0.40;0.13;;;;;;;16.47;100.00;100423.66;5039220;28;20464;-56
2022/09/13 10:54:19;;;;;;;0.43;0.40;;;;;;;16.55;100.00;100434.06;5034809;28;20114;-55
2022/09/13 10:56:47;;;;;;;0.50;0.22;;;;;;;16.56;100.00;100435.69;5041840;28;20083;-55
2022/09/13 10:59:32;;;;;;;4.13;0.32;;;;;;;16.57;100.00;100427.44;5034701;28;20017;-53
2022/09/13 11:02:25;;;;;;;4.95;0.10;;;;;;;16.53;100.00;100433.47;5033506;28;20182;-53
2022/09/13 11:05:18;;;;;;;0.95;0.10;;;;;;;16.41;100.00;100437.97;5040309;28;20445;-52
2022/09/13 11:08:24;;;;;;;1.40;0.28;;;;;;;16.32;100.00;100440.19;5041698;28;20035;-52
2022/09/13 11:11:14;;;;;;;1.05;0.10;;;;;;;16.31;100.00;100435.88;5031288;28;20041;-56
2022/09/13 11:13:58;;;;;;;2.58;0.20;;;;;;;16.31;100.00;100443.88;5043053;28;20067;-55
2022/09/13 11:16:42;;;;;;;0.17;0.00;;;;;;;16.23;100.00;100444.22;5042120;28;20390;-55
2022/09/13 11:19:07;;;;;;;2.05;0.10;;;;;;;16.19;100.00;100445.75;5040733;28;20047;-51
2022/09/13 11:21:41;;;;;;;3.88;0.40;;;;;;;16.20;100.00;100445.50;5048710;28;20037;-54
2022/09/13 11:24:32;;;;;;;4.35;0.80;;;;;;;16.28;100.00;100447.84;5034627;28;20028;-51
2022/09/13 11:27:22;;;;;;;0.40;0.00;;;;;;;16.43;100.00;100442.06;5042591;28;20490;-53
2022/09/13 11:30:02;;;;;;;0.88;0.08;;;;;;;16.49;100.00;100451.03;5040125;28;20067;-54
2022/09/13 11:32:43;;;;;;;3.55;0.50;;;;;;;16.64;100.00;100445.22;5038905;28;20029;-52
2022/09/13 11:35:42;;;;;;;0.80;0.10;;;;;;;16.79;100.00;100443.75;5032499;28;20087;-53
2022/09/13 11:38:25;;;;;;;0.30;0.00;;;;;;;16.81;100.00;100448.88;5043126;28;20114;-53
2022/09/13 11:41:15;;;;;;;2.20;0.40;;;;;;;16.66;100.00;100445.81;5038191;28;20444;-51
2022/09/13 11:43:51;;;;;;;1.20;0.28;;;;;;;16.59;100.00;100451.25;5042714;28;20038;-51
2022/09/13 11:46:38;;;;;;;2.17;0.20;;;;;;;16.62;100.00;100447.31;5034280;28;20438;-52